Time;durP1;ratioP1;P1;durP2;ratioP2;P2;SDS_P1;SDS_P2;PMS_P1;PMS_P2;Temp;Humidity;BMP_temperature;BMP_pressure;BME280_temperature;BME280_humidity;BME280_pressure;Samples;Min_cycle;Max_cycle;Signal;HPM_P1;HPM_P2
2023/05/17 00:01:39;;;;;;;26.35;15.02;;;;;;;;;;10181041;28;20529;-90
2023/05/17 00:06:40;;;;;;;19.23;11.50;;;;;;;;;;10223426;28;20056;-91
2023/05/17 00:11:57;;;;;;;23.48;12.77;;;;;;;;;;10223621;28;20050;-91
2023/05/17 00:16:58;;;;;;;24.75;13.90;;;;;;;;;;10228946;28;20779;-89
2023/05/17 00:22:13;;;;;;;20.20;12.52;;;;;;;;;;10223919;28;20094;-91
2023/05/17 00:32:52;;;;;;;23.95;13.23;;;;;;;;;;10247257;28;20046;-91
2023/05/17 00:37:53;;;;;;;23.23;12.50;;;;;;;;;;10231937;28;20035;-89
2023/05/17 00:42:59;;;;;;;20.75;12.45;;;;;;;;;;10214690;28;20122;-92
2023/05/17 00:48:00;;;;;;;;;;;;;;;;;;10248296;28;20488;-91
2023/05/17 00:53:01;;;;;;;17.73;10.57;;;;;;;;;;10232077;28;19933;-89
2023/05/17 00:58:02;;;;;;;23.63;12.23;;;;;;;;;;10229269;28;20035;-89
2023/05/17 01:03:04;;;;;;;21.20;11.82;;;;;;;;;;10230220;28;20439;-89
2023/05/17 01:08:05;;;;;;;20.27;12.38;;;;;;;;;;10247585;28;20579;-91
2023/05/17 01:13:06;;;;;;;25.70;12.90;;;;;;;;;;10219141;28;20034;-89
2023/05/17 01:18:28;;;;;;;19.83;11.25;;;;;;;;;;10223078;28;20649;-90
2023/05/17 01:23:30;;;;;;;23.05;13.13;;;;;;;;;;10227326;28;20046;-89
2023/05/17 01:28:32;;;;;;;29.83;14.65;;;;;;;;;;10228641;28;20047;-90
2023/05/17 01:33:33;;;;;;;25.55;13.68;;;;;;;;;;10222261;28;20758;-89
2023/05/17 01:38:34;;;;;;;20.55;12.32;;;;;;;;;;10228557;28;20039;-91
2023/05/17 01:43:44;;;;;;;19.23;11.05;;;;;;;;;;10226836;28;20067;-90
2023/05/17 01:48:52;;;;;;;21.65;12.95;;;;;;;;;;10222726;28;20047;-89
2023/05/17 01:53:57;;;;;;;27.02;14.40;;;;;;;;;;10228451;28;20841;-91
2023/05/17 01:59:20;;;;;;;27.98;15.05;;;;;;;;;;10228041;28;20027;-92
2023/05/17 02:04:24;;;;;;;27.77;13.88;;;;;;;;;;10185371;29;20560;-90
2023/05/17 02:09:25;;;;;;;27.83;14.38;;;;;;;;;;10184662;29;20063;-91
2023/05/17 02:14:26;;;;;;;26.48;15.25;;;;;;;;;;10203268;29;20047;-89
2023/05/17 02:19:27;;;;;;;33.88;17.50;;;;;;;;;;10173518;29;20408;-88
2023/05/17 02:24:32;;;;;;;30.83;15.82;;;;;;;;;;10181023;29;20062;-90
2023/05/17 02:29:36;;;;;;;29.95;15.05;;;;;;;;;;10184115;29;20091;-90
2023/05/17 02:34:37;;;;;;;32.85;16.27;;;;;;;;;;10225810;29;20046;-90
2023/05/17 02:39:38;;;;;;;38.78;17.75;;;;;;;;;;10226540;29;20030;-91
2023/05/17 02:44:39;;;;;;;38.42;16.88;;;;;;;;;;10225894;28;20403;-90
2023/05/17 02:49:43;;;;;;;20.23;10.50;;;;;;;;;;10223065;29;20023;-90
2023/05/17 02:54:44;;;;;;;24.70;11.80;;;;;;;;;;10227001;29;20625;-90
2023/05/17 02:59:45;;;;;;;31.40;14.77;;;;;;;;;;10221681;29;20027;-90
2023/05/17 03:04:47;;;;;;;25.33;12.63;;;;;;;;;;10217025;28;20047;-90
2023/05/17 03:09:48;;;;;;;22.08;12.10;;;;;;;;;;10225901;28;20031;-88
2023/05/17 03:14:49;;;;;;;35.70;15.90;;;;;;;;;;10223357;28;20494;-88
2023/05/17 03:19:50;;;;;;;29.42;14.15;;;;;;;;;;10224816;28;20093;-89
2023/05/17 03:24:52;;;;;;;29.75;15.05;;;;;;;;;;10226053;28;20055;-88
2023/05/17 03:29:53;;;;;;;34.28;14.50;;;;;;;;;;10224625;28;20122;-90
2023/05/17 03:34:54;;;;;;;28.15;14.48;;;;;;;;;;10241871;28;20035;-89
2023/05/17 03:39:58;;;;;;;24.67;12.20;;;;;;;;;;10221836;28;20035;-90
2023/05/17 03:45:00;;;;;;;22.00;11.63;;;;;;;;;;10234843;28;20071;-89
2023/05/17 03:50:00;;;;;;;21.00;10.73;;;;;;;;;;10215287;28;20038;-88
2023/05/17 03:55:01;;;;;;;21.88;11.48;;;;;;;;;;10223883;28;20680;-90
2023/05/17 04:00:07;;;;;;;23.13;11.43;;;;;;;;;;10214858;28;20046;-89
2023/05/17 04:05:08;;;;;;;19.35;11.05;;;;;;;;;;10223891;28;20488;-88
2023/05/17 04:10:10;;;;;;;21.00;10.68;;;;;;;;;;10223436;28;20495;-90
2023/05/17 04:15:11;;;;;;;25.42;12.25;;;;;;;;;;10229983;28;20063;-89
2023/05/17 04:20:12;;;;;;;26.25;11.98;;;;;;;;;;10223937;28;20062;-90
2023/05/17 04:25:18;;;;;;;25.08;11.50;;;;;;;;;;10213357;28;20171;-91
2023/05/17 04:30:20;;;;;;;29.23;11.73;;;;;;;;;;10222792;28;20506;-89
2023/05/17 04:35:21;;;;;;;29.60;12.65;;;;;;;;;;10225453;28;20039;-91
2023/05/17 04:40:23;;;;;;;25.63;11.85;;;;;;;;;;10239330;28;20035;-92
2023/05/17 04:45:24;;;;;;;30.02;12.60;;;;;;;;;;10239068;28;20260;-90
2023/05/17 04:50:25;;;;;;;22.38;10.38;;;;;;;;;;10225875;28;20122;-91
2023/05/17 04:55:26;;;;;;;25.48;10.98;;;;;;;;;;10225627;28;20031;-89
2023/05/17 05:00:27;;;;;;;27.25;11.13;;;;;;;;;;10225196;28;20093;-90
2023/05/17 05:05:28;;;;;;;27.17;11.85;;;;;;;;;;10225137;28;20055;-90
2023/05/17 05:10:29;;;;;;;25.67;11.63;;;;;;;;;;10227938;28;20031;-90
2023/05/17 05:15:31;;;;;;;33.08;12.55;;;;;;;;;;10232584;28;20051;-89
2023/05/17 05:20:32;;;;;;;29.88;11.93;;;;;;;;;;10240714;28;20050;-90
2023/05/17 05:25:34;;;;;;;28.40;11.60;;;;;;;;;;10235158;28;20046;-91
2023/05/17 05:30:35;;;;;;;23.35;10.95;;;;;;;;;;10258446;28;20510;-86
2023/05/17 05:35:41;;;;;;;24.55;11.02;;;;;;;;;;10251536;28;20034;-92
2023/05/17 05:40:41;;;;;;;20.25;10.02;;;;;;;;;;10242943;28;20027;-90
2023/05/17 05:45:46;;;;;;;21.58;9.80;;;;;;;;;;10236437;28;20916;-91
2023/05/17 05:50:47;;;;;;;25.70;11.15;;;;;;;;;;10244121;28;20034;-88
2023/05/17 05:55:48;;;;;;;25.35;11.30;;;;;;;;;;10231119;28;20063;-92
2023/05/17 06:00:49;;;;;;;25.55;11.13;;;;;;;;;;10231136;28;20109;-89
2023/05/17 06:05:53;;;;;;;28.65;12.52;;;;;;;;;;10220034;29;20051;-90
2023/05/17 06:10:54;;;;;;;22.35;10.30;;;;;;;;;;10221978;29;20065;-86
2023/05/17 06:15:55;;;;;;;25.45;11.07;;;;;;;;;;10218947;29;20074;-90
2023/05/17 06:20:56;;;;;;;30.88;12.20;;;;;;;;;;10203460;29;20027;-90
2023/05/17 06:25:57;;;;;;;18.02;9.07;;;;;;;;;;10204208;29;20058;-90
2023/05/17 06:31:01;;;;;;;30.42;11.98;;;;;;;;;;10204335;29;20542;-91
2023/05/17 06:36:06;;;;;;;27.77;12.13;;;;;;;;;;10219423;29;20043;-89
2023/05/17 06:41:12;;;;;;;28.13;10.23;;;;;;;;;;10218896;29;20035;-91
2023/05/17 06:46:15;;;;;;;27.75;12.55;;;;;;;;;;10207851;29;20036;-87
2023/05/17 06:51:26;;;;;;;25.58;11.05;;;;;;;;;;10205806;29;20038;-89
2023/05/17 06:56:35;;;;;;;25.98;11.40;;;;;;;;;;10217329;29;20062;-90
2023/05/17 07:01:36;;;;;;;29.27;11.02;;;;;;;;;;10206795;29;20039;-90
2023/05/17 07:06:37;;;;;;;32.97;13.90;;;;;;;;;;10217460;29;20055;-88
2023/05/17 07:11:41;;;;;;;36.30;15.45;;;;;;;;;;10205191;29;20408;-89
2023/05/17 07:16:42;;;;;;;40.92;16.90;;;;;;;;;;10204226;29;20047;-91
2023/05/17 07:21:44;;;;;;;41.97;18.27;;;;;;;;;;10203643;29;20207;-92
2023/05/17 07:26:48;;;;;;;46.55;18.83;;;;;;;;;;10220817;29;20055;-91
2023/05/17 07:31:49;;;;;;;41.40;18.10;;;;;;;;;;10193907;28;20031;-90
2023/05/17 07:36:53;;;;;;;38.83;18.90;;;;;;;;;;10217489;29;20403;-92
2023/05/17 07:41:59;;;;;;;52.38;20.48;;;;;;;;;;10224105;29;20031;-92
2023/05/17 07:47:03;;;;;;;43.90;19.73;;;;;;;;;;10227076;29;20779;-94
2023/05/17 07:52:34;;;;;;;44.72;18.92;;;;;;;;;;10206186;29;20043;-91
2023/05/17 07:57:57;;;;;;;;;;;;;;;;;;;;;
2023/05/17 08:03:06;;;;;;;55.08;21.33;;;;;;;;;;10214127;28;20038;-91
2023/05/17 08:08:14;;;;;;;47.90;20.33;;;;;;;;;;10234724;28;20035;-93
2023/05/17 08:13:18;;;;;;;58.75;22.27;;;;;;;;;;10241258;28;20122;-92
2023/05/17 08:18:20;;;;;;;45.63;19.70;;;;;;;;;;10225694;28;20033;-89
2023/05/17 08:23:20;;;;;;;46.60;19.88;;;;;;;;;;10224999;28;20576;-91
2023/05/17 08:28:21;;;;;;;56.78;22.73;;;;;;;;;;10236430;28;20039;-90
2023/05/17 08:33:24;;;;;;;48.30;19.00;;;;;;;;;;10224346;28;20047;-87
2023/05/17 08:38:25;;;;;;;54.70;22.43;;;;;;;;;;10223406;28;20035;-89
2023/05/17 08:43:27;;;;;;;65.47;23.57;;;;;;;;;;10236781;28;20683;-91
2023/05/17 08:48:30;;;;;;;61.35;23.17;;;;;;;;;;10231158;28;20089;-88
2023/05/17 08:53:31;;;;;;;43.40;18.33;;;;;;;;;;10230697;28;20079;-89
2023/05/17 08:58:36;;;;;;;36.72;16.98;;;;;;;;;;10231186;28;20473;-89
2023/05/17 09:03:40;;;;;;;37.67;14.68;;;;;;;;;;10231000;28;20193;-89
2023/05/17 09:08:41;;;;;;;34.97;15.88;;;;;;;;;;10231001;28;20039;-89
2023/05/17 09:13:43;;;;;;;37.07;16.43;;;;;;;;;;10230378;28;20538;-88
2023/05/17 09:18:52;;;;;;;35.95;17.50;;;;;;;;;;10230140;28;20042;-86
2023/05/17 09:23:58;;;;;;;33.85;15.07;;;;;;;;;;10247175;28;20046;-88
2023/05/17 09:28:59;;;;;;;32.28;15.38;;;;;;;;;;10229624;28;20059;-88
2023/05/17 09:34:00;;;;;;;35.85;15.60;;;;;;;;;;10229211;28;20190;-88
2023/05/17 09:39:04;;;;;;;31.83;14.38;;;;;;;;;;10228976;28;20159;-88
2023/05/17 09:44:08;;;;;;;33.40;15.07;;;;;;;;;;10229308;28;20035;-90
2023/05/17 09:49:09;;;;;;;28.27;13.90;;;;;;;;;;10228693;28;20039;-88
2023/05/17 09:54:10;;;;;;;37.07;16.97;;;;;;;;;;10228543;28;20479;-90
2023/05/17 09:59:12;;;;;;;40.95;17.70;;;;;;;;;;10228239;28;20457;-89
2023/05/17 10:04:19;;;;;;;37.63;15.63;;;;;;;;;;10245560;28;20058;-90
2023/05/17 10:09:21;;;;;;;42.08;17.00;;;;;;;;;;10228402;28;20047;-89
2023/05/17 10:14:25;;;;;;;36.00;16.40;;;;;;;;;;10228623;28;20066;-88
2023/05/17 10:19:26;;;;;;;46.30;19.90;;;;;;;;;;10228832;28;20515;-90
2023/05/17 10:24:29;;;;;;;38.03;15.53;;;;;;;;;;10245977;28;20466;-88
2023/05/17 10:29:33;;;;;;;36.40;16.20;;;;;;;;;;10245394;28;20047;-89
2023/05/17 10:34:36;;;;;;;35.33;14.90;;;;;;;;;;10228088;28;20031;-90
2023/05/17 10:39:38;;;;;;;42.73;16.03;;;;;;;;;;10227129;28;20558;-88
2023/05/17 10:44:39;;;;;;;37.63;16.57;;;;;;;;;;10226448;28;20070;-86
2023/05/17 10:49:41;;;;;;;37.47;16.73;;;;;;;;;;10245314;28;20114;-88
2023/05/17 10:54:46;;;;;;;49.60;18.87;;;;;;;;;;10237561;28;20035;-89
2023/05/17 11:00:05;;;;;;;47.27;18.57;;;;;;;;;;10226676;28;20042;-87
2023/05/17 11:05:06;;;;;;;46.00;21.57;;;;;;;;;;10226500;28;20134;-91
2023/05/17 11:10:13;;;;;;;48.72;20.40;;;;;;;;;;10225390;28;20031;-90
2023/05/17 11:15:14;;;;;;;50.45;20.40;;;;;;;;;;10225106;29;20035;-89
2023/05/17 11:20:18;;;;;;;51.47;20.50;;;;;;;;;;10237309;28;20463;-89
2023/05/17 11:25:19;;;;;;;34.47;15.33;;;;;;;;;;10223312;28;20439;-88
2023/05/17 11:30:30;;;;;;;32.60;14.33;;;;;;;;;;10223504;28;20039;-87
2023/05/17 11:35:40;;;;;;;42.80;17.37;;;;;;;;;;10223262;28;20024;-88
2023/05/17 11:40:42;;;;;;;31.00;16.03;;;;;;;;;;10223453;28;20776;-89
2023/05/17 11:45:47;;;;;;;34.13;15.47;;;;;;;;;;10223049;28;20039;-89
2023/05/17 11:50:49;;;;;;;29.57;13.43;;;;;;;;;;10223342;28;20852;-90
2023/05/17 11:55:51;;;;;;;31.30;14.50;;;;;;;;;;10222619;28;20130;-88
2023/05/17 12:00:52;;;;;;;34.50;13.30;;;;;;;;;;10223197;28;20420;-89
2023/05/17 12:06:14;;;;;;;33.67;14.83;;;;;;;;;;10163291;29;1100152;-88
2023/05/17 12:11:16;;;;;;;34.93;12.37;;;;;;;;;;10202787;29;20799;-92
2023/05/17 12:16:20;;;;;;;26.77;10.97;;;;;;;;;;10202188;29;20028;-91
2023/05/17 12:21:21;;;;;;;26.63;11.23;;;;;;;;;;10198631;29;20032;-88
2023/05/17 12:26:23;;;;;;;27.73;10.17;;;;;;;;;;10208053;29;20519;-88
2023/05/17 12:31:28;;;;;;;26.13;11.10;;;;;;;;;;10205143;29;20043;-88
2023/05/17 12:36:30;;;;;;;26.23;12.05;;;;;;;;;;10207655;29;20062;-88
2023/05/17 12:41:31;;;;;;;21.70;10.33;;;;;;;;;;10204753;29;20134;-87
2023/05/17 12:46:32;;;;;;;26.30;11.27;;;;;;;;;;10197678;29;20031;-92
2023/05/17 12:51:44;;;;;;;18.37;8.33;;;;;;;;;;10207089;29;20510;-88
2023/05/17 12:56:45;;;;;;;21.10;8.00;;;;;;;;;;10205409;29;20023;-86
2023/05/17 13:01:47;;;;;;;16.83;7.30;;;;;;;;;;10219222;29;20036;-87
2023/05/17 13:06:56;;;;;;;16.83;7.30;;;;;;;;;;10207014;29;20614;-87
2023/05/17 13:11:58;;;;;;;19.53;7.57;;;;;;;;;;10205175;29;20394;-89
2023/05/17 13:17:00;;;;;;;22.13;9.13;;;;;;;;;;10206006;29;20094;-88
2023/05/17 13:22:02;;;;;;;24.03;9.70;;;;;;;;;;10192824;29;20036;-88
2023/05/17 13:27:04;;;;;;;24.27;8.93;;;;;;;;;;10203689;29;20823;-89
2023/05/17 13:32:06;;;;;;;32.07;11.53;;;;;;;;;;10204664;29;20499;-89
2023/05/17 13:37:07;;;;;;;28.30;11.37;;;;;;;;;;10196808;29;20171;-87
2023/05/17 13:42:09;;;;;;;30.63;10.77;;;;;;;;;;10203219;29;20040;-87
2023/05/17 13:47:10;;;;;;;38.17;12.63;;;;;;;;;;10205844;29;20475;-88
2023/05/17 13:52:12;;;;;;;33.77;10.37;;;;;;;;;;10202609;29;20122;-89
2023/05/17 13:57:15;;;;;;;26.73;10.30;;;;;;;;;;10197987;29;20043;-89
2023/05/17 14:02:17;;;;;;;30.20;10.73;;;;;;;;;;10190578;29;20039;-89
2023/05/17 14:07:18;;;;;;;34.30;12.03;;;;;;;;;;10200586;29;20468;-89
2023/05/17 14:12:19;;;;;;;35.10;11.47;;;;;;;;;;10210762;29;20042;-92
2023/05/17 14:17:20;;;;;;;24.53;9.57;;;;;;;;;;10205695;29;20122;-90
2023/05/17 14:22:21;;;;;;;22.60;8.50;;;;;;;;;;10204281;29;20536;-87
2023/05/17 14:27:24;;;;;;;20.97;10.10;;;;;;;;;;10204198;29;20106;-85
2023/05/17 14:32:25;;;;;;;29.93;11.77;;;;;;;;;;10209532;29;20082;-91
2023/05/17 14:37:26;;;;;;;22.98;9.10;;;;;;;;;;10213644;29;20559;-92
2023/05/17 14:42:27;;;;;;;36.73;12.07;;;;;;;;;;10206755;29;20039;-91
2023/05/17 14:47:28;;;;;;;31.47;11.43;;;;;;;;;;10209281;29;20091;-89
2023/05/17 14:52:33;;;;;;;31.43;12.13;;;;;;;;;;10201855;29;20546;-88
2023/05/17 14:57:36;;;;;;;35.43;11.17;;;;;;;;;;10196179;29;20039;-89
2023/05/17 15:02:38;;;;;;;30.37;10.77;;;;;;;;;;10181017;29;20032;-89
2023/05/17 15:07:44;;;;;;;33.53;11.03;;;;;;;;;;10200620;29;20158;-93
2023/05/17 15:12:46;;;;;;;37.47;12.97;;;;;;;;;;10201636;29;20510;-88
2023/05/17 15:17:51;;;;;;;48.23;16.17;;;;;;;;;;10208103;29;20034;-91
2023/05/17 15:22:55;;;;;;;42.38;16.42;;;;;;;;;;10200457;29;20526;-90
2023/05/17 15:27:56;;;;;;;50.90;16.43;;;;;;;;;;10199041;29;20059;-89
2023/05/17 15:32:57;;;;;;;53.03;15.93;;;;;;;;;;10198130;29;20411;-89
2023/05/17 15:37:58;;;;;;;34.65;13.27;;;;;;;;;;10199199;29;20040;-87
2023/05/17 15:42:59;;;;;;;35.93;14.13;;;;;;;;;;10194002;29;20511;-88
2023/05/17 15:48:01;;;;;;;42.20;14.90;;;;;;;;;;10194676;29;20043;-88
2023/05/17 15:53:02;;;;;;;45.25;16.52;;;;;;;;;;10205435;29;20050;-89
2023/05/17 15:58:06;;;;;;;45.73;15.43;;;;;;;;;;10215978;29;20119;-91
2023/05/17 16:03:07;;;;;;;55.88;17.65;;;;;;;;;;10200509;28;20142;-90
2023/05/17 16:08:11;;;;;;;44.53;15.77;;;;;;;;;;10231580;28;20050;-91
2023/05/17 16:13:22;;;;;;;41.50;16.57;;;;;;;;;;10217760;28;20590;-93
2023/05/17 16:18:27;;;;;;;45.17;16.33;;;;;;;;;;10224786;28;20075;-91
2023/05/17 16:23:34;;;;;;;43.78;16.85;;;;;;;;;;10218976;28;20036;-91
2023/05/17 16:28:35;;;;;;;36.47;16.07;;;;;;;;;;10230768;28;20043;-92
2023/05/17 16:33:37;;;;;;;43.90;16.73;;;;;;;;;;10254858;28;20031;-89
2023/05/17 16:38:40;;;;;;;50.28;18.17;;;;;;;;;;10237170;28;20031;-92
2023/05/17 16:43:56;;;;;;;44.47;17.57;;;;;;;;;;10228311;28;20031;-93
2023/05/17 16:48:57;;;;;;;48.50;16.77;;;;;;;;;;10225344;28;20130;-88
2023/05/17 16:53:58;;;;;;;46.27;18.03;;;;;;;;;;10216744;28;20763;-87
2023/05/17 16:58:59;;;;;;;49.15;19.33;;;;;;;;;;10221846;28;20044;-88
2023/05/17 17:04:00;;;;;;;43.33;18.52;;;;;;;;;;10223701;28;20057;-90
2023/05/17 17:09:03;;;;;;;53.83;19.48;;;;;;;;;;10229862;28;20046;-89
2023/05/17 17:14:05;;;;;;;44.63;17.90;;;;;;;;;;10229432;28;20074;-90
2023/05/17 17:19:10;;;;;;;59.22;19.48;;;;;;;;;;10227674;28;20530;-90
2023/05/17 17:24:12;;;;;;;44.00;17.05;;;;;;;;;;10227871;28;20455;-91
2023/05/17 17:29:13;;;;;;;51.17;21.35;;;;;;;;;;10241664;28;20039;-91
2023/05/17 17:34:15;;;;;;;48.78;20.80;;;;;;;;;;10232014;28;20031;-91
2023/05/17 17:39:16;;;;;;;47.00;17.65;;;;;;;;;;10231580;28;20035;-92
2023/05/17 17:44:17;;;;;;;43.23;18.33;;;;;;;;;;10225279;28;20377;-92
2023/05/17 17:49:18;;;;;;;47.70;17.93;;;;;;;;;;10230045;28;20047;-90
2023/05/17 17:54:19;;;;;;;46.00;17.98;;;;;;;;;;10234160;28;20036;-89
2023/05/17 17:59:22;;;;;;;45.20;17.63;;;;;;;;;;10227554;28;20065;-91
2023/05/17 18:04:26;;;;;;;45.63;16.37;;;;;;;;;;10221775;28;20059;-91
2023/05/17 18:09:38;;;;;;;36.70;16.50;;;;;;;;;;10219588;28;20491;-92
2023/05/17 18:14:39;;;;;;;45.25;17.73;;;;;;;;;;10226378;28;20054;-89
2023/05/17 18:19:40;;;;;;;39.38;15.70;;;;;;;;;;10222856;28;20034;-88
2023/05/17 18:24:42;;;;;;;45.72;17.48;;;;;;;;;;10241065;28;20454;-87
2023/05/17 18:29:43;;;;;;;41.13;17.20;;;;;;;;;;10229474;28;20043;-86
2023/05/17 18:34:44;;;;;;;43.53;16.77;;;;;;;;;;10223753;28;20101;-87
2023/05/17 18:39:45;;;;;;;54.23;19.63;;;;;;;;;;10249682;28;20122;-86
2023/05/17 18:44:47;;;;;;;53.38;19.48;;;;;;;;;;10216199;28;20563;-85
2023/05/17 18:49:51;;;;;;;55.23;19.53;;;;;;;;;;10241532;28;20044;-86
2023/05/17 18:54:52;;;;;;;48.30;19.00;;;;;;;;;;10236054;28;20538;-84
2023/05/17 18:59:53;;;;;;;55.53;18.50;;;;;;;;;;10255898;28;20042;-90
2023/05/17 19:05:13;;;;;;;37.15;17.60;;;;;;;;;;10209240;28;20059;-89
2023/05/17 19:10:14;;;;;;;34.58;17.20;;;;;;;;;;10205904;28;20051;-90
2023/05/17 19:15:15;;;;;;;44.67;18.37;;;;;;;;;;10216962;28;20150;-91
2023/05/17 19:20:16;;;;;;;45.73;17.20;;;;;;;;;;10227289;28;20475;-91
2023/05/17 19:25:17;;;;;;;37.17;15.63;;;;;;;;;;10231096;28;20073;-90
2023/05/17 19:36:06;;;;;;;40.47;16.88;;;;;;;;;;10196987;28;20039;-90
2023/05/17 19:41:08;;;;;;;45.50;17.85;;;;;;;;;;10215732;28;20034;-91
2023/05/17 19:46:10;;;;;;;34.92;15.43;;;;;;;;;;10227795;28;20126;-92
2023/05/17 19:51:14;;;;;;;49.92;18.42;;;;;;;;;;10223567;28;20039;-92
2023/05/17 19:56:24;;;;;;;44.10;17.40;;;;;;;;;;10239290;28;20058;-92
2023/05/17 20:01:55;;;;;;;41.13;16.87;;;;;;;;;;10221141;28;20037;-92
2023/05/17 20:07:14;;;;;;;36.83;17.08;;;;;;;;;;10236177;28;20516;-92
2023/05/17 20:12:17;;;;;;;39.07;16.17;;;;;;;;;;10229177;28;20074;-93
2023/05/17 20:23:13;;;;;;;41.87;18.33;;;;;;;;;;10239679;28;20149;-93
2023/05/17 20:28:16;;;;;;;42.88;17.30;;;;;;;;;;10243854;28;20102;-92
2023/05/17 20:33:25;;;;;;;48.13;18.80;;;;;;;;;;10232598;28;20845;-94
2023/05/17 20:43:54;;;;;;;44.30;17.43;;;;;;;;;;10269835;28;20127;-94
2023/05/17 20:48:59;;;;;;;40.07;17.57;;;;;;;;;;10238836;28;20036;-92
2023/05/17 20:54:01;;;;;;;45.60;18.60;;;;;;;;;;10234356;28;20027;-91
2023/05/17 20:59:24;;;;;;;45.63;16.93;;;;;;;;;;10248206;28;20038;-91
2023/05/17 21:04:40;;;;;;;41.00;16.13;;;;;;;;;;10171690;29;20495;-92
2023/05/17 21:09:46;;;;;;;;;;;;;;;;;;10183877;29;20055;-92
2023/05/17 21:15:02;;;;;;;39.33;17.57;;;;;;;;;;10165527;29;20378;-92
2023/05/17 21:20:12;;;;;;;38.33;15.70;;;;;;;;;;10176691;29;20103;-93
2023/05/17 21:25:15;;;;;;;41.30;16.63;;;;;;;;;;10179636;29;20036;-91
2023/05/17 21:30:28;;;;;;;43.30;16.83;;;;;;;;;;10211546;29;20142;-92
2023/05/17 21:35:29;;;;;;;45.63;17.73;;;;;;;;;;10225351;29;20050;-91
2023/05/17 21:40:30;;;;;;;43.33;18.33;;;;;;;;;;10208532;29;20040;-92
2023/05/17 21:45:31;;;;;;;44.40;18.00;;;;;;;;;;10208545;29;20078;-91
2023/05/17 21:50:32;;;;;;;41.93;16.70;;;;;;;;;;10206383;29;20044;-92
2023/05/17 21:55:33;;;;;;;39.83;17.20;;;;;;;;;;10219801;29;20043;-91
2023/05/17 22:00:35;;;;;;;37.57;15.60;;;;;;;;;;10203743;29;20035;-90
2023/05/17 22:05:37;;;;;;;41.10;17.00;;;;;;;;;;10226387;28;20098;-90
2023/05/17 22:10:39;;;;;;;46.47;15.47;;;;;;;;;;10230353;28;20043;-90
2023/05/17 22:15:42;;;;;;;34.67;13.53;;;;;;;;;;10228019;28;20483;-91
2023/05/17 22:20:46;;;;;;;46.60;16.70;;;;;;;;;;10229964;28;20031;-92
2023/05/17 22:25:55;;;;;;;36.17;16.23;;;;;;;;;;10231110;28;20034;-92
2023/05/17 22:30:56;;;;;;;41.37;16.77;;;;;;;;;;10229229;28;20040;-90
2023/05/17 22:36:01;;;;;;;42.33;16.80;;;;;;;;;;10224828;28;20553;-90
2023/05/17 22:41:02;;;;;;;39.50;16.40;;;;;;;;;;10228154;28;20126;-90
2023/05/17 22:46:09;;;;;;;50.10;18.17;;;;;;;;;;10224222;28;20454;-92
2023/05/17 22:51:11;;;;;;;49.60;19.00;;;;;;;;;;10247316;28;20026;-91
2023/05/17 22:56:12;;;;;;;45.17;17.47;;;;;;;;;;10263286;28;20038;-91
2023/05/17 23:01:13;;;;;;;40.90;14.73;;;;;;;;;;10234540;28;20608;-92
2023/05/17 23:06:20;;;;;;;40.03;16.73;;;;;;;;;;10222551;29;20083;-90
2023/05/17 23:11:21;;;;;;;36.70;15.57;;;;;;;;;;10229295;28;20040;-90
2023/05/17 23:16:29;;;;;;;32.07;14.07;;;;;;;;;;10212931;29;20384;-92
2023/05/17 23:21:32;;;;;;;37.97;16.47;;;;;;;;;;10218570;29;20126;-91
2023/05/17 23:26:35;;;;;;;50.10;19.67;;;;;;;;;;10203382;29;20047;-90
2023/05/17 23:31:37;;;;;;;32.57;14.33;;;;;;;;;;10209179;29;20036;-90
2023/05/17 23:36:42;;;;;;;38.53;14.90;;;;;;;;;;10217589;29;20114;-92
2023/05/17 23:41:48;;;;;;;30.60;12.38;;;;;;;;;;10203069;29;20063;-90
2023/05/17 23:46:52;;;;;;;31.67;13.40;;;;;;;;;;10224746;29;20070;-92
2023/05/17 23:51:57;;;;;;;31.03;12.03;;;;;;;;;;10201703;29;20031;-91
2023/05/17 23:56:58;;;;;;;32.97;13.47;;;;;;;;;;10201401;29;20467;-91
